sensor_id;sensor_type;location;lat;lon;timestamp;temperature;humidity
31113;DHT22;17763;48.730;9.136;2023-01-09T00:02:04;8.30;99.90
31113;DHT22;17763;48.730;9.136;2023-01-09T00:04:30;8.30;99.90
31113;DHT22;17763;48.730;9.136;2023-01-09T00:06:55;8.30;99.90
31113;DHT22;17763;48.730;9.136;2023-01-09T00:09:23;8.30;99.90
31113;DHT22;17763;48.730;9.136;2023-01-09T00:11:50;8.30;99.90
31113;DHT22;17763;48.730;9.136;2023-01-09T00:14:16;8.30;99.90
31113;DHT22;17763;48.730;9.136;2023-01-09T00:16:45;8.20;99.90
31113;DHT22;17763;48.730;9.136;2023-01-09T00:19:11;8.30;99.90
31113;DHT22;17763;48.730;9.136;2023-01-09T00:21:36;8.30;99.90
31113;DHT22;17763;48.730;9.136;2023-01-09T00:24:02;8.20;99.90
31113;DHT22;17763;48.730;9.136;2023-01-09T00:26:28;8.20;99.90
31113;DHT22;17763;48.730;9.136;2023-01-09T00:28:54;8.20;99.90
31113;DHT22;17763;48.730;9.136;2023-01-09T00:31:20;8.20;99.90
31113;DHT22;17763;48.730;9.136;2023-01-09T00:34:04;8.20;99.90
31113;DHT22;17763;48.730;9.136;2023-01-09T00:36:30;8.20;99.90
31113;DHT22;17763;48.730;9.136;2023-01-09T00:38:56;8.20;99.90
31113;DHT22;17763;48.730;9.136;2023-01-09T00:41:30;8.20;99.90
31113;DHT22;17763;48.730;9.136;2023-01-09T00:44:11;8.10;99.90
31113;DHT22;17763;48.730;9.136;2023-01-09T00:46:42;8.10;99.90
31113;DHT22;17763;48.730;9.136;2023-01-09T00:49:12;8.10;99.90
31113;DHT22;17763;48.730;9.136;2023-01-09T00:51:40;8.10;99.90
31113;DHT22;17763;48.730;9.136;2023-01-09T00:54:08;8.10;99.90
31113;DHT22;17763;48.730;9.136;2023-01-09T00:56:35;8.10;99.90
31113;DHT22;17763;48.730;9.136;2023-01-09T00:59:02;8.10;99.90
31113;DHT22;17763;48.730;9.136;2023-01-09T01:01:27;8.10;99.90
31113;DHT22;17763;48.730;9.136;2023-01-09T01:03:53;8.10;99.90
31113;DHT22;17763;48.730;9.136;2023-01-09T01:06:19;8.10;99.90
31113;DHT22;17763;48.730;9.136;2023-01-09T01:09:03;8.10;99.90
31113;DHT22;17763;48.730;9.136;2023-01-09T01:11:31;8.10;99.90
31113;DHT22;17763;48.730;9.136;2023-01-09T01:13:56;8.10;99.90
31113;DHT22;17763;48.730;9.136;2023-01-09T01:16:22;8.10;99.90
31113;DHT22;17763;48.730;9.136;2023-01-09T01:18:48;8.00;99.90
31113;DHT22;17763;48.730;9.136;2023-01-09T01:21:15;8.00;99.90
31113;DHT22;17763;48.730;9.136;2023-01-09T01:23:41;8.10;99.90
31113;DHT22;17763;48.730;9.136;2023-01-09T01:26:15;8.00;99.90
31113;DHT22;17763;48.730;9.136;2023-01-09T01:28:41;8.00;99.90
31113;DHT22;17763;48.730;9.136;2023-01-09T01:31:07;8.00;99.90
31113;DHT22;17763;48.730;9.136;2023-01-09T01:33:34;8.00;99.90
31113;DHT22;17763;48.730;9.136;2023-01-09T01:36:05;8.10;99.90
31113;DHT22;17763;48.730;9.136;2023-01-09T01:38:31;8.00;99.90
31113;DHT22;17763;48.730;9.136;2023-01-09T01:40:57;8.10;99.90
31113;DHT22;17763;48.730;9.136;2023-01-09T01:43:23;8.00;99.90
31113;DHT22;17763;48.730;9.136;2023-01-09T01:45:49;8.00;99.90
31113;DHT22;17763;48.730;9.136;2023-01-09T01:48:19;8.00;99.90
31113;DHT22;17763;48.730;9.136;2023-01-09T01:50:51;8.00;99.90
31113;DHT22;17763;48.730;9.136;2023-01-09T01:58:33;8.00;99.90
31113;DHT22;17763;48.730;9.136;2023-01-09T02:01:01;8.00;99.90
31113;DHT22;17763;48.730;9.136;2023-01-09T02:03:27;8.00;99.90
31113;DHT22;17763;48.730;9.136;2023-01-09T02:05:53;8.00;99.90
31113;DHT22;17763;48.730;9.136;2023-01-09T02:08:20;8.00;99.90
31113;DHT22;17763;48.730;9.136;2023-01-09T02:10:46;8.00;99.90
31113;DHT22;17763;48.730;9.136;2023-01-09T02:13:14;8.00;99.90
31113;DHT22;17763;48.730;9.136;2023-01-09T02:24:29;7.90;99.90
31113;DHT22;17763;48.730;9.136;2023-01-09T02:27:08;7.90;99.90
31113;DHT22;17763;48.730;9.136;2023-01-09T02:33:07;7.90;99.90
31113;DHT22;17763;48.730;9.136;2023-01-09T02:36:10;8.00;99.90
31113;DHT22;17763;48.730;9.136;2023-01-09T02:38:39;7.90;99.90
31113;DHT22;17763;48.730;9.136;2023-01-09T02:41:23;7.90;99.90
31113;DHT22;17763;48.730;9.136;2023-01-09T02:46:36;7.90;99.90
31113;DHT22;17763;48.730;9.136;2023-01-09T02:49:01;7.90;99.90
31113;DHT22;17763;48.730;9.136;2023-01-09T02:51:38;7.90;99.90
31113;DHT22;17763;48.730;9.136;2023-01-09T02:56:57;7.80;99.90
31113;DHT22;17763;48.730;9.136;2023-01-09T03:07:23;7.80;99.90
31113;DHT22;17763;48.730;9.136;2023-01-09T03:09:53;7.80;99.90
31113;DHT22;17763;48.730;9.136;2023-01-09T03:12:22;7.70;99.90
31113;DHT22;17763;48.730;9.136;2023-01-09T03:14:53;7.70;99.90
31113;DHT22;17763;48.730;9.136;2023-01-09T03:17:26;7.70;99.90
31113;DHT22;17763;48.730;9.136;2023-01-09T03:19:54;7.70;99.90
31113;DHT22;17763;48.730;9.136;2023-01-09T03:22:21;7.70;99.90
31113;DHT22;17763;48.730;9.136;2023-01-09T03:24:46;7.60;99.90
31113;DHT22;17763;48.730;9.136;2023-01-09T03:27:12;7.60;99.90
31113;DHT22;17763;48.730;9.136;2023-01-09T03:29:38;7.60;99.90
31113;DHT22;17763;48.730;9.136;2023-01-09T03:32:04;7.60;99.90
31113;DHT22;17763;48.730;9.136;2023-01-09T03:34:29;7.50;99.90
31113;DHT22;17763;48.730;9.136;2023-01-09T03:36:55;7.50;99.90
31113;DHT22;17763;48.730;9.136;2023-01-09T03:39:20;7.50;99.90
31113;DHT22;17763;48.730;9.136;2023-01-09T03:41:46;7.50;99.90
31113;DHT22;17763;48.730;9.136;2023-01-09T03:44:12;7.40;99.90
31113;DHT22;17763;48.730;9.136;2023-01-09T03:46:37;7.40;99.90
31113;DHT22;17763;48.730;9.136;2023-01-09T03:49:03;7.40;99.90
31113;DHT22;17763;48.730;9.136;2023-01-09T03:51:28;7.30;99.90
31113;DHT22;17763;48.730;9.136;2023-01-09T03:53:54;7.40;99.90
31113;DHT22;17763;48.730;9.136;2023-01-09T03:56:20;7.30;99.90
31113;DHT22;17763;48.730;9.136;2023-01-09T03:58:45;7.30;99.90
31113;DHT22;17763;48.730;9.136;2023-01-09T04:01:11;7.30;99.90
31113;DHT22;17763;48.730;9.136;2023-01-09T04:03:38;7.30;99.90
31113;DHT22;17763;48.730;9.136;2023-01-09T04:06:04;7.30;99.90
31113;DHT22;17763;48.730;9.136;2023-01-09T04:08:32;7.30;99.90
31113;DHT22;17763;48.730;9.136;2023-01-09T04:10:57;7.30;99.90
31113;DHT22;17763;48.730;9.136;2023-01-09T04:13:23;7.20;99.90
31113;DHT22;17763;48.730;9.136;2023-01-09T04:15:49;7.20;99.90
31113;DHT22;17763;48.730;9.136;2023-01-09T04:18:14;7.20;99.90
31113;DHT22;17763;48.730;9.136;2023-01-09T04:20:40;7.20;99.90
31113;DHT22;17763;48.730;9.136;2023-01-09T04:23:06;7.10;99.90
31113;DHT22;17763;48.730;9.136;2023-01-09T04:25:34;7.20;99.90
31113;DHT22;17763;48.730;9.136;2023-01-09T04:28:00;7.10;99.90
31113;DHT22;17763;48.730;9.136;2023-01-09T04:30:25;7.10;99.90
31113;DHT22;17763;48.730;9.136;2023-01-09T04:32:51;7.00;99.90
31113;DHT22;17763;48.730;9.136;2023-01-09T04:35:17;7.00;99.90
31113;DHT22;17763;48.730;9.136;2023-01-09T04:37:43;6.90;99.90
31113;DHT22;17763;48.730;9.136;2023-01-09T04:40:09;6.80;99.90
31113;DHT22;17763;48.730;9.136;2023-01-09T04:42:38;6.70;99.90
31113;DHT22;17763;48.730;9.136;2023-01-09T04:45:05;6.60;99.90
31113;DHT22;17763;48.730;9.136;2023-01-09T04:47:31;6.60;99.90
31113;DHT22;17763;48.730;9.136;2023-01-09T04:50:00;6.60;99.90
31113;DHT22;17763;48.730;9.136;2023-01-09T04:52:27;6.50;99.90
31113;DHT22;17763;48.730;9.136;2023-01-09T04:54:52;6.40;99.90
31113;DHT22;17763;48.730;9.136;2023-01-09T04:57:18;6.40;99.90
31113;DHT22;17763;48.730;9.136;2023-01-09T04:59:44;6.40;99.90
31113;DHT22;17763;48.730;9.136;2023-01-09T05:02:12;6.40;99.90
31113;DHT22;17763;48.730;9.136;2023-01-09T05:04:38;6.30;99.90
31113;DHT22;17763;48.730;9.136;2023-01-09T05:07:04;6.30;99.90
31113;DHT22;17763;48.730;9.136;2023-01-09T05:09:29;6.30;99.90
31113;DHT22;17763;48.730;9.136;2023-01-09T05:11:55;6.40;99.90
31113;DHT22;17763;48.730;9.136;2023-01-09T05:14:20;6.20;99.90
31113;DHT22;17763;48.730;9.136;2023-01-09T05:16:49;6.20;99.90
31113;DHT22;17763;48.730;9.136;2023-01-09T05:19:14;6.20;99.90
31113;DHT22;17763;48.730;9.136;2023-01-09T05:21:40;6.20;99.90
31113;DHT22;17763;48.730;9.136;2023-01-09T05:24:05;6.20;99.90
31113;DHT22;17763;48.730;9.136;2023-01-09T05:26:31;6.10;99.90
31113;DHT22;17763;48.730;9.136;2023-01-09T05:28:57;6.20;99.90
31113;DHT22;17763;48.730;9.136;2023-01-09T05:31:24;6.10;99.90
31113;DHT22;17763;48.730;9.136;2023-01-09T05:33:50;6.10;99.90
31113;DHT22;17763;48.730;9.136;2023-01-09T05:36:16;6.00;99.90
31113;DHT22;17763;48.730;9.136;2023-01-09T05:38:41;6.00;99.90
31113;DHT22;17763;48.730;9.136;2023-01-09T05:41:07;6.00;99.90
31113;DHT22;17763;48.730;9.136;2023-01-09T05:43:33;6.00;99.90
31113;DHT22;17763;48.730;9.136;2023-01-09T05:45:59;6.00;99.90
31113;DHT22;17763;48.730;9.136;2023-01-09T05:48:24;5.90;99.90
31113;DHT22;17763;48.730;9.136;2023-01-09T05:50:50;5.90;99.90
31113;DHT22;17763;48.730;9.136;2023-01-09T05:53:16;5.90;99.90
31113;DHT22;17763;48.730;9.136;2023-01-09T05:55:41;5.90;99.90
31113;DHT22;17763;48.730;9.136;2023-01-09T05:58:07;5.90;99.90
31113;DHT22;17763;48.730;9.136;2023-01-09T06:00:33;5.90;99.90
31113;DHT22;17763;48.730;9.136;2023-01-09T06:02:59;5.90;99.90
31113;DHT22;17763;48.730;9.136;2023-01-09T06:05:24;5.90;99.90
31113;DHT22;17763;48.730;9.136;2023-01-09T06:07:50;6.00;99.90
31113;DHT22;17763;48.730;9.136;2023-01-09T06:10:16;6.00;99.90
31113;DHT22;17763;48.730;9.136;2023-01-09T06:12:46;6.00;99.90
31113;DHT22;17763;48.730;9.136;2023-01-09T06:15:11;6.00;99.90
31113;DHT22;17763;48.730;9.136;2023-01-09T06:17:37;6.00;99.90
31113;DHT22;17763;48.730;9.136;2023-01-09T06:20:03;6.00;99.90
31113;DHT22;17763;48.730;9.136;2023-01-09T06:22:29;6.00;99.90
31113;DHT22;17763;48.730;9.136;2023-01-09T06:24:54;6.00;99.90
31113;DHT22;17763;48.730;9.136;2023-01-09T06:27:20;6.20;99.90
31113;DHT22;17763;48.730;9.136;2023-01-09T06:29:46;6.00;99.90
31113;DHT22;17763;48.730;9.136;2023-01-09T06:32:11;6.10;99.90
31113;DHT22;17763;48.730;9.136;2023-01-09T06:34:37;6.00;99.90
31113;DHT22;17763;48.730;9.136;2023-01-09T06:37:02;6.00;99.90
31113;DHT22;17763;48.730;9.136;2023-01-09T06:39:28;6.00;99.90
31113;DHT22;17763;48.730;9.136;2023-01-09T06:41:53;6.00;99.90
31113;DHT22;17763;48.730;9.136;2023-01-09T06:44:19;5.90;99.90
31113;DHT22;17763;48.730;9.136;2023-01-09T06:46:47;5.90;99.90
31113;DHT22;17763;48.730;9.136;2023-01-09T06:49:15;5.90;99.90
31113;DHT22;17763;48.730;9.136;2023-01-09T06:51:50;5.90;99.90
31113;DHT22;17763;48.730;9.136;2023-01-09T06:54:17;5.80;99.90
31113;DHT22;17763;48.730;9.136;2023-01-09T06:56:43;5.80;99.90
31113;DHT22;17763;48.730;9.136;2023-01-09T06:59:09;5.80;99.90
31113;DHT22;17763;48.730;9.136;2023-01-09T07:01:34;5.70;99.90
31113;DHT22;17763;48.730;9.136;2023-01-09T07:04:00;5.80;99.90
31113;DHT22;17763;48.730;9.136;2023-01-09T07:06:26;5.80;99.90
31113;DHT22;17763;48.730;9.136;2023-01-09T07:08:51;5.80;99.90
31113;DHT22;17763;48.730;9.136;2023-01-09T07:11:17;5.80;99.90
31113;DHT22;17763;48.730;9.136;2023-01-09T07:13:43;5.90;99.90
31113;DHT22;17763;48.730;9.136;2023-01-09T07:16:08;5.90;99.90
31113;DHT22;17763;48.730;9.136;2023-01-09T07:18:34;5.90;99.90
31113;DHT22;17763;48.730;9.136;2023-01-09T07:20:59;5.90;99.90
31113;DHT22;17763;48.730;9.136;2023-01-09T07:23:27;6.00;99.90
31113;DHT22;17763;48.730;9.136;2023-01-09T07:25:53;6.00;99.90
31113;DHT22;17763;48.730;9.136;2023-01-09T07:28:19;6.00;99.90
31113;DHT22;17763;48.730;9.136;2023-01-09T07:30:44;6.00;99.90
31113;DHT22;17763;48.730;9.136;2023-01-09T07:33:10;6.00;99.90
31113;DHT22;17763;48.730;9.136;2023-01-09T07:35:38;6.00;99.90
31113;DHT22;17763;48.730;9.136;2023-01-09T07:38:03;6.00;99.90
31113;DHT22;17763;48.730;9.136;2023-01-09T07:40:29;6.00;99.90
31113;DHT22;17763;48.730;9.136;2023-01-09T07:42:58;6.00;99.90
31113;DHT22;17763;48.730;9.136;2023-01-09T07:45:23;6.00;99.90
31113;DHT22;17763;48.730;9.136;2023-01-09T07:47:49;6.00;99.90
31113;DHT22;17763;48.730;9.136;2023-01-09T07:50:17;6.00;99.90
31113;DHT22;17763;48.730;9.136;2023-01-09T07:52:46;6.00;99.90
31113;DHT22;17763;48.730;9.136;2023-01-09T07:55:12;6.00;99.90
31113;DHT22;17763;48.730;9.136;2023-01-09T07:57:38;6.00;99.90
31113;DHT22;17763;48.730;9.136;2023-01-09T08:00:04;6.00;99.90
31113;DHT22;17763;48.730;9.136;2023-01-09T08:02:31;5.90;99.90
31113;DHT22;17763;48.730;9.136;2023-01-09T08:04:57;5.90;99.90
31113;DHT22;17763;48.730;9.136;2023-01-09T08:07:23;5.90;99.90
31113;DHT22;17763;48.730;9.136;2023-01-09T08:09:48;5.90;99.90
31113;DHT22;17763;48.730;9.136;2023-01-09T08:12:14;5.90;99.90
31113;DHT22;17763;48.730;9.136;2023-01-09T08:14:40;5.80;99.90
31113;DHT22;17763;48.730;9.136;2023-01-09T08:17:05;5.80;99.90
31113;DHT22;17763;48.730;9.136;2023-01-09T08:19:31;5.80;99.90
31113;DHT22;17763;48.730;9.136;2023-01-09T08:21:56;5.80;99.90
31113;DHT22;17763;48.730;9.136;2023-01-09T08:24:22;5.80;99.90
31113;DHT22;17763;48.730;9.136;2023-01-09T08:26:48;5.90;99.90
31113;DHT22;17763;48.730;9.136;2023-01-09T08:29:13;5.90;99.90
31113;DHT22;17763;48.730;9.136;2023-01-09T08:31:39;6.00;99.90
31113;DHT22;17763;48.730;9.136;2023-01-09T08:34:04;6.00;99.90
31113;DHT22;17763;48.730;9.136;2023-01-09T08:36:30;6.00;99.90
31113;DHT22;17763;48.730;9.136;2023-01-09T08:38:56;6.10;99.90
31113;DHT22;17763;48.730;9.136;2023-01-09T08:41:21;6.10;99.90
31113;DHT22;17763;48.730;9.136;2023-01-09T08:44:05;6.10;99.90
31113;DHT22;17763;48.730;9.136;2023-01-09T08:46:50;6.10;99.90
31113;DHT22;17763;48.730;9.136;2023-01-09T08:49:31;6.10;99.90
31113;DHT22;17763;48.730;9.136;2023-01-09T08:51:59;6.20;99.90
31113;DHT22;17763;48.730;9.136;2023-01-09T08:54:25;6.20;99.90
31113;DHT22;17763;48.730;9.136;2023-01-09T08:56:53;6.10;99.90
31113;DHT22;17763;48.730;9.136;2023-01-09T08:59:19;6.20;99.90
31113;DHT22;17763;48.730;9.136;2023-01-09T09:01:44;6.20;99.90
31113;DHT22;17763;48.730;9.136;2023-01-09T09:04:10;6.20;99.90
31113;DHT22;17763;48.730;9.136;2023-01-09T09:06:35;6.20;99.90
31113;DHT22;17763;48.730;9.136;2023-01-09T09:09:04;6.30;99.90
31113;DHT22;17763;48.730;9.136;2023-01-09T09:11:34;6.20;99.90
31113;DHT22;17763;48.730;9.136;2023-01-09T09:14:00;6.10;99.90
31113;DHT22;17763;48.730;9.136;2023-01-09T09:16:47;6.10;99.90
31113;DHT22;17763;48.730;9.136;2023-01-09T09:19:13;6.10;99.90
31113;DHT22;17763;48.730;9.136;2023-01-09T09:21:38;6.10;99.90
31113;DHT22;17763;48.730;9.136;2023-01-09T09:24:04;6.20;99.90
31113;DHT22;17763;48.730;9.136;2023-01-09T09:26:30;6.20;99.90
31113;DHT22;17763;48.730;9.136;2023-01-09T09:28:57;6.20;99.90
31113;DHT22;17763;48.730;9.136;2023-01-09T09:31:23;6.30;99.90
31113;DHT22;17763;48.730;9.136;2023-01-09T09:33:49;6.30;99.90
31113;DHT22;17763;48.730;9.136;2023-01-09T09:36:14;6.30;99.90
31113;DHT22;17763;48.730;9.136;2023-01-09T09:38:40;6.40;99.90
31113;DHT22;17763;48.730;9.136;2023-01-09T09:55:24;6.70;99.90
31113;DHT22;17763;48.730;9.136;2023-01-09T09:57:52;6.70;99.90
31113;DHT22;17763;48.730;9.136;2023-01-09T10:00:21;6.70;99.90
31113;DHT22;17763;48.730;9.136;2023-01-09T10:02:57;6.80;99.90
31113;DHT22;17763;48.730;9.136;2023-01-09T10:05:29;6.80;99.90
31113;DHT22;17763;48.730;9.136;2023-01-09T10:08:01;6.80;99.90
31113;DHT22;17763;48.730;9.136;2023-01-09T10:10:33;6.90;99.90
31113;DHT22;17763;48.730;9.136;2023-01-09T10:13:00;6.90;99.90
31113;DHT22;17763;48.730;9.136;2023-01-09T10:16:23;6.90;99.90
31113;DHT22;17763;48.730;9.136;2023-01-09T10:18:57;6.90;99.90
31113;DHT22;17763;48.730;9.136;2023-01-09T10:21:51;6.90;99.90
31113;DHT22;17763;48.730;9.136;2023-01-09T10:26:52;6.90;99.90
31113;DHT22;17763;48.730;9.136;2023-01-09T10:34:37;6.90;99.90
31113;DHT22;17763;48.730;9.136;2023-01-09T10:37:26;7.00;99.90
31113;DHT22;17763;48.730;9.136;2023-01-09T10:39:58;7.00;99.90
31113;DHT22;17763;48.730;9.136;2023-01-09T10:42:34;7.00;99.90
31113;DHT22;17763;48.730;9.136;2023-01-09T10:45:05;7.00;99.90
31113;DHT22;17763;48.730;9.136;2023-01-09T10:47:34;7.00;99.90
31113;DHT22;17763;48.730;9.136;2023-01-09T10:50:05;7.00;99.90
31113;DHT22;17763;48.730;9.136;2023-01-09T10:52:37;7.10;99.90
31113;DHT22;17763;48.730;9.136;2023-01-09T10:55:34;7.10;99.90
31113;DHT22;17763;48.730;9.136;2023-01-09T10:58:14;7.10;99.90
31113;DHT22;17763;48.730;9.136;2023-01-09T11:00:41;7.20;99.90
31113;DHT22;17763;48.730;9.136;2023-01-09T11:03:15;7.20;99.90
31113;DHT22;17763;48.730;9.136;2023-01-09T11:05:41;7.30;99.90
31113;DHT22;17763;48.730;9.136;2023-01-09T11:13:19;7.30;99.90
31113;DHT22;17763;48.730;9.136;2023-01-09T11:15:45;7.30;99.90
31113;DHT22;17763;48.730;9.136;2023-01-09T11:18:22;7.30;99.90
31113;DHT22;17763;48.730;9.136;2023-01-09T11:20:51;7.40;99.90
31113;DHT22;17763;48.730;9.136;2023-01-09T11:23:27;7.40;99.90
31113;DHT22;17763;48.730;9.136;2023-01-09T11:25:58;7.30;99.90
31113;DHT22;17763;48.730;9.136;2023-01-09T11:28:24;7.40;99.90
31113;DHT22;17763;48.730;9.136;2023-01-09T11:33:27;7.50;99.90
31113;DHT22;17763;48.730;9.136;2023-01-09T11:36:14;7.50;99.90
31113;DHT22;17763;48.730;9.136;2023-01-09T11:38:47;7.50;99.90
31113;DHT22;17763;48.730;9.136;2023-01-09T11:41:20;7.50;99.90
31113;DHT22;17763;48.730;9.136;2023-01-09T11:43:49;7.50;99.90
31113;DHT22;17763;48.730;9.136;2023-01-09T11:46:48;7.50;99.90
31113;DHT22;17763;48.730;9.136;2023-01-09T11:51:40;7.60;99.90
31113;DHT22;17763;48.730;9.136;2023-01-09T11:56:50;7.50;99.90
31113;DHT22;17763;48.730;9.136;2023-01-09T11:59:23;7.50;99.90
31113;DHT22;17763;48.730;9.136;2023-01-09T12:01:58;7.50;99.90
31113;DHT22;17763;48.730;9.136;2023-01-09T12:04:47;7.50;99.90
31113;DHT22;17763;48.730;9.136;2023-01-09T12:23:45;7.90;99.90
31113;DHT22;17763;48.730;9.136;2023-01-09T12:26:27;7.90;99.90
31113;DHT22;17763;48.730;9.136;2023-01-09T12:37:39;7.80;99.90
31113;DHT22;17763;48.730;9.136;2023-01-09T12:43:16;7.80;99.90
31113;DHT22;17763;48.730;9.136;2023-01-09T12:53:58;7.80;99.90
31113;DHT22;17763;48.730;9.136;2023-01-09T12:56:37;7.80;99.90
31113;DHT22;17763;48.730;9.136;2023-01-09T13:01:45;7.70;99.90
31113;DHT22;17763;48.730;9.136;2023-01-09T13:04:27;7.70;99.90
31113;DHT22;17763;48.730;9.136;2023-01-09T13:07:03;7.60;99.90
31113;DHT22;17763;48.730;9.136;2023-01-09T13:09:41;7.70;99.90
31113;DHT22;17763;48.730;9.136;2023-01-09T13:12:16;7.60;99.90
31113;DHT22;17763;48.730;9.136;2023-01-09T13:17:57;7.60;99.90
31113;DHT22;17763;48.730;9.136;2023-01-09T13:20:51;7.60;99.90
31113;DHT22;17763;48.730;9.136;2023-01-09T13:25:55;7.40;99.90
31113;DHT22;17763;48.730;9.136;2023-01-09T13:33:27;7.30;99.90
31113;DHT22;17763;48.730;9.136;2023-01-09T13:35:55;7.20;99.90
31113;DHT22;17763;48.730;9.136;2023-01-09T13:38:27;7.20;99.90
31113;DHT22;17763;48.730;9.136;2023-01-09T13:41:00;7.20;99.90
31113;DHT22;17763;48.730;9.136;2023-01-09T13:43:58;7.20;99.90
31113;DHT22;17763;48.730;9.136;2023-01-09T13:46:43;7.30;99.90
31113;DHT22;17763;48.730;9.136;2023-01-09T13:49:32;7.30;99.90
31113;DHT22;17763;48.730;9.136;2023-01-09T13:52:01;7.30;99.90
31113;DHT22;17763;48.730;9.136;2023-01-09T13:59:44;7.30;99.90
31113;DHT22;17763;48.730;9.136;2023-01-09T14:07:46;7.00;99.90
31113;DHT22;17763;48.730;9.136;2023-01-09T14:12:56;6.90;99.90
31113;DHT22;17763;48.730;9.136;2023-01-09T14:15:35;6.80;99.90
31113;DHT22;17763;48.730;9.136;2023-01-09T14:18:13;6.80;99.90
31113;DHT22;17763;48.730;9.136;2023-01-09T14:21:09;6.80;99.90
31113;DHT22;17763;48.730;9.136;2023-01-09T14:23:59;6.80;99.90
31113;DHT22;17763;48.730;9.136;2023-01-09T14:26:49;6.80;99.90
31113;DHT22;17763;48.730;9.136;2023-01-09T14:37:35;6.90;99.90
31113;DHT22;17763;48.730;9.136;2023-01-09T14:40:14;6.90;99.90
31113;DHT22;17763;48.730;9.136;2023-01-09T14:42:40;6.90;99.90
31113;DHT22;17763;48.730;9.136;2023-01-09T14:45:18;6.90;99.90
31113;DHT22;17763;48.730;9.136;2023-01-09T14:47:52;6.80;99.90
31113;DHT22;17763;48.730;9.136;2023-01-09T14:50:59;6.80;99.90
31113;DHT22;17763;48.730;9.136;2023-01-09T14:56:04;6.70;99.90
31113;DHT22;17763;48.730;9.136;2023-01-09T14:58:34;6.60;99.90
31113;DHT22;17763;48.730;9.136;2023-01-09T15:01:19;6.60;99.90
31113;DHT22;17763;48.730;9.136;2023-01-09T15:03:56;6.70;99.90
31113;DHT22;17763;48.730;9.136;2023-01-09T15:06:30;6.70;99.90
31113;DHT22;17763;48.730;9.136;2023-01-09T15:11:31;6.70;99.90
31113;DHT22;17763;48.730;9.136;2023-01-09T15:14:00;6.70;99.90
31113;DHT22;17763;48.730;9.136;2023-01-09T15:16:30;6.70;99.90
31113;DHT22;17763;48.730;9.136;2023-01-09T15:18:59;6.70;99.90
31113;DHT22;17763;48.730;9.136;2023-01-09T15:21:28;6.70;99.90
31113;DHT22;17763;48.730;9.136;2023-01-09T15:24:11;6.80;99.90
31113;DHT22;17763;48.730;9.136;2023-01-09T15:26:39;6.80;99.90
31113;DHT22;17763;48.730;9.136;2023-01-09T15:29:14;6.80;99.90
31113;DHT22;17763;48.730;9.136;2023-01-09T15:31:47;6.70;99.90
31113;DHT22;17763;48.730;9.136;2023-01-09T15:34:21;6.80;99.90
31113;DHT22;17763;48.730;9.136;2023-01-09T15:36:49;6.80;99.90
31113;DHT22;17763;48.730;9.136;2023-01-09T15:39:29;6.80;99.90
31113;DHT22;17763;48.730;9.136;2023-01-09T15:41:57;6.90;99.90
31113;DHT22;17763;48.730;9.136;2023-01-09T15:44:44;6.90;99.90
31113;DHT22;17763;48.730;9.136;2023-01-09T15:47:16;6.90;99.90
31113;DHT22;17763;48.730;9.136;2023-01-09T15:49:45;6.90;99.90
31113;DHT22;17763;48.730;9.136;2023-01-09T15:52:15;7.10;99.90
31113;DHT22;17763;48.730;9.136;2023-01-09T15:54:45;7.00;99.90
31113;DHT22;17763;48.730;9.136;2023-01-09T15:59:49;6.90;99.90
31113;DHT22;17763;48.730;9.136;2023-01-09T16:02:20;6.90;99.90
31113;DHT22;17763;48.730;9.136;2023-01-09T16:05:06;6.90;99.90
31113;DHT22;17763;48.730;9.136;2023-01-09T16:07:34;6.90;99.90
31113;DHT22;17763;48.730;9.136;2023-01-09T16:09:59;6.90;99.90
31113;DHT22;17763;48.730;9.136;2023-01-09T16:12:28;6.80;99.90
31113;DHT22;17763;48.730;9.136;2023-01-09T16:14:58;6.80;99.90
31113;DHT22;17763;48.730;9.136;2023-01-09T16:17:27;6.70;99.90
31113;DHT22;17763;48.730;9.136;2023-01-09T16:20:12;6.70;99.90
31113;DHT22;17763;48.730;9.136;2023-01-09T16:22:55;6.70;99.90
31113;DHT22;17763;48.730;9.136;2023-01-09T16:25:28;6.80;99.90
31113;DHT22;17763;48.730;9.136;2023-01-09T16:33:25;6.70;99.90
31113;DHT22;17763;48.730;9.136;2023-01-09T16:35:54;6.70;99.90
31113;DHT22;17763;48.730;9.136;2023-01-09T16:38:20;6.70;99.90
31113;DHT22;17763;48.730;9.136;2023-01-09T16:41:12;6.70;99.90
31113;DHT22;17763;48.730;9.136;2023-01-09T16:43:56;6.70;99.90
31113;DHT22;17763;48.730;9.136;2023-01-09T16:46:22;6.70;99.90
31113;DHT22;17763;48.730;9.136;2023-01-09T16:48:48;6.70;99.90
31113;DHT22;17763;48.730;9.136;2023-01-09T16:51:16;6.60;99.90
31113;DHT22;17763;48.730;9.136;2023-01-09T16:53:43;6.60;99.90
31113;DHT22;17763;48.730;9.136;2023-01-09T16:56:28;6.60;99.90
31113;DHT22;17763;48.730;9.136;2023-01-09T16:58:54;6.60;99.90
31113;DHT22;17763;48.730;9.136;2023-01-09T17:01:21;6.60;99.90
31113;DHT22;17763;48.730;9.136;2023-01-09T17:03:48;6.50;99.90
31113;DHT22;17763;48.730;9.136;2023-01-09T17:06:28;6.50;99.90
31113;DHT22;17763;48.730;9.136;2023-01-09T17:08:56;6.40;99.90
31113;DHT22;17763;48.730;9.136;2023-01-09T17:11:24;6.40;99.90
31113;DHT22;17763;48.730;9.136;2023-01-09T17:13:54;6.30;99.90
31113;DHT22;17763;48.730;9.136;2023-01-09T17:16:20;6.30;99.90
31113;DHT22;17763;48.730;9.136;2023-01-09T17:18:49;6.20;99.90
31113;DHT22;17763;48.730;9.136;2023-01-09T17:21:26;6.10;99.90
31113;DHT22;17763;48.730;9.136;2023-01-09T17:23:59;6.10;99.90
31113;DHT22;17763;48.730;9.136;2023-01-09T17:26:45;6.10;99.90
31113;DHT22;17763;48.730;9.136;2023-01-09T17:29:36;6.00;99.90
31113;DHT22;17763;48.730;9.136;2023-01-09T17:32:02;5.90;99.90
31113;DHT22;17763;48.730;9.136;2023-01-09T17:34:28;5.90;99.90
31113;DHT22;17763;48.730;9.136;2023-01-09T17:36:56;5.90;99.90
31113;DHT22;17763;48.730;9.136;2023-01-09T17:39:24;5.80;99.90
31113;DHT22;17763;48.730;9.136;2023-01-09T17:41:50;5.80;99.90
31113;DHT22;17763;48.730;9.136;2023-01-09T17:44:15;5.80;99.90
31113;DHT22;17763;48.730;9.136;2023-01-09T17:46:42;5.80;99.90
31113;DHT22;17763;48.730;9.136;2023-01-09T17:49:19;5.80;99.90
31113;DHT22;17763;48.730;9.136;2023-01-09T17:51:45;5.70;99.90
31113;DHT22;17763;48.730;9.136;2023-01-09T17:54:11;5.70;99.90
31113;DHT22;17763;48.730;9.136;2023-01-09T17:56:38;5.70;99.90
31113;DHT22;17763;48.730;9.136;2023-01-09T17:59:05;5.70;99.90
31113;DHT22;17763;48.730;9.136;2023-01-09T18:01:34;5.70;99.90
31113;DHT22;17763;48.730;9.136;2023-01-09T18:03:59;5.80;99.90
31113;DHT22;17763;48.730;9.136;2023-01-09T18:06:25;5.70;99.90
31113;DHT22;17763;48.730;9.136;2023-01-09T18:08:51;5.70;99.90
31113;DHT22;17763;48.730;9.136;2023-01-09T18:11:19;5.70;99.90
31113;DHT22;17763;48.730;9.136;2023-01-09T18:13:47;5.70;99.90
31113;DHT22;17763;48.730;9.136;2023-01-09T18:16:19;5.60;99.90
31113;DHT22;17763;48.730;9.136;2023-01-09T18:18:45;5.60;99.90
31113;DHT22;17763;48.730;9.136;2023-01-09T18:21:15;5.50;99.90
31113;DHT22;17763;48.730;9.136;2023-01-09T18:23:42;5.50;99.90
31113;DHT22;17763;48.730;9.136;2023-01-09T18:26:08;5.40;99.90
31113;DHT22;17763;48.730;9.136;2023-01-09T18:28:35;5.50;99.90
31113;DHT22;17763;48.730;9.136;2023-01-09T18:31:02;5.50;99.90
31113;DHT22;17763;48.730;9.136;2023-01-09T18:33:27;5.40;99.90